createdAt,value
2022-12-18T00:02:15.421Z,-4.40
2022-12-18T00:05:02.149Z,-4.40
2022-12-18T00:07:50.264Z,-3.70
2022-12-18T00:10:36.865Z,-4.30
2022-12-18T00:13:25.302Z,-4.30
2022-12-18T00:16:21.324Z,-3.20
2022-12-18T00:19:10.306Z,-4.00
2022-12-18T00:21:56.964Z,-3.90
2022-12-18T00:24:45.357Z,-4.00
2022-12-18T00:27:31.995Z,-3.30
2022-12-18T00:30:20.299Z,-3.10
2022-12-18T00:33:06.884Z,-4.00
2022-12-18T00:35:55.338Z,-4.00
2022-12-18T00:38:42.527Z,-4.10
2022-12-18T00:41:49.325Z,-4.20
2022-12-18T00:44:35.956Z,-4.30
2022-12-18T00:47:24.237Z,-3.90
2022-12-18T00:50:11.107Z,-4.20
2022-12-18T00:52:59.285Z,-4.10
2022-12-18T00:55:46.396Z,-4.10
2022-12-18T00:58:34.285Z,-4.10
2022-12-18T01:01:21.058Z,-4.10
2022-12-18T01:04:09.259Z,-4.00
2022-12-18T01:06:56.692Z,-3.40
2022-12-18T01:09:45.265Z,-4.00
2022-12-18T01:12:32.175Z,-4.00
2022-12-18T01:15:21.286Z,-4.00
2022-12-18T01:18:08.176Z,-3.90
2022-12-18T01:20:56.303Z,-3.90
2022-12-18T01:23:46.032Z,-4.00
2022-12-18T01:26:34.376Z,-4.00
2022-12-18T01:29:21.008Z,-4.00
2022-12-18T01:32:09.254Z,-4.00
2022-12-18T01:34:55.994Z,-3.90
2022-12-18T01:37:44.239Z,-3.80
2022-12-18T01:40:30.840Z,-3.80
2022-12-18T01:43:19.276Z,-3.70
2022-12-18T01:46:05.908Z,-3.50
2022-12-18T01:48:56.318Z,-3.80
2022-12-18T01:51:43.604Z,-3.80
2022-12-18T01:54:32.286Z,-3.70
2022-12-18T01:57:19.043Z,-3.70
2022-12-18T02:00:11.221Z,-3.70
2022-12-18T02:02:58.198Z,-3.80
2022-12-18T02:05:54.538Z,-3.70
2022-12-18T02:08:46.136Z,-3.80
2022-12-18T02:11:52.266Z,-4.00
2022-12-18T02:14:48.810Z,-3.90
2022-12-18T02:17:50.196Z,-3.70
2022-12-18T02:20:40.363Z,-3.60
2022-12-18T02:23:34.213Z,-3.60
2022-12-18T02:26:44.674Z,-3.50
2022-12-18T02:29:58.203Z,-3.60
2022-12-18T02:32:48.157Z,-3.60
2022-12-18T02:35:37.193Z,-3.50
2022-12-18T02:38:24.541Z,-3.60
2022-12-18T02:41:13.237Z,-3.60
2022-12-18T02:44:02.998Z,-3.50
2022-12-18T02:46:55.188Z,-3.00
2022-12-18T02:49:41.819Z,-3.60
2022-12-18T02:52:56.197Z,-3.50
2022-12-18T02:55:54.971Z,-3.50
2022-12-18T02:58:43.212Z,-3.60
2022-12-18T03:01:48.683Z,-3.50
2022-12-18T03:04:46.365Z,-3.50
2022-12-18T03:07:39.170Z,-3.50
2022-12-18T03:10:30.204Z,-3.60
2022-12-18T03:13:21.562Z,-3.50
2022-12-18T03:16:13.211Z,-3.40
2022-12-18T03:19:01.955Z,-3.40
2022-12-18T03:21:52.193Z,-3.30
2022-12-18T03:24:40.577Z,-3.30
2022-12-18T03:27:30.186Z,-2.80
2022-12-18T03:30:17.320Z,-3.20
2022-12-18T03:33:10.197Z,-3.20
2022-12-18T03:35:56.933Z,-3.20
2022-12-18T03:38:45.225Z,-3.30
2022-12-18T03:41:43.475Z,-3.30
2022-12-18T03:44:34.185Z,-3.40
2022-12-18T03:47:30.069Z,-3.10
2022-12-18T03:50:30.172Z,-3.30
2022-12-18T03:53:16.935Z,-3.30
2022-12-18T03:56:07.153Z,-3.30
2022-12-18T03:58:54.733Z,-3.30
2022-12-18T04:01:48.281Z,-3.20
2022-12-18T04:04:36.103Z,-3.00
2022-12-18T04:07:25.223Z,-2.90
2022-12-18T04:10:12.747Z,-3.20
2022-12-18T04:13:01.211Z,-3.30
2022-12-18T04:15:47.921Z,-3.00
2022-12-18T04:18:36.245Z,-3.30
2022-12-18T04:21:23.673Z,-3.20
2022-12-18T04:24:12.161Z,-3.10
2022-12-18T04:26:58.894Z,-2.40
2022-12-18T04:29:47.205Z,-3.20
2022-12-18T04:32:34.499Z,-3.30
2022-12-18T04:35:24.179Z,-3.30
2022-12-18T04:38:11.028Z,-2.40
2022-12-18T04:40:59.175Z,-3.30
2022-12-18T04:43:45.764Z,-3.30
2022-12-18T04:46:34.285Z,-3.20
2022-12-18T04:49:22.519Z,-3.20
2022-12-18T04:52:12.181Z,-3.20
2022-12-18T04:54:58.856Z,-3.20
2022-12-18T04:57:47.345Z,-3.30
2022-12-18T05:00:33.964Z,-3.30
2022-12-18T05:03:22.273Z,-3.10
2022-12-18T05:06:09.382Z,-3.20
2022-12-18T05:08:59.140Z,-3.40
2022-12-18T05:11:45.781Z,-3.40
2022-12-18T05:14:34.156Z,-3.40
2022-12-18T05:17:20.802Z,-3.40
2022-12-18T05:20:09.124Z,-3.20
2022-12-18T05:22:55.818Z,-3.20
2022-12-18T05:25:42.555Z,-3.20
2022-12-18T05:28:30.394Z,-2.60
2022-12-18T05:31:18.688Z,-3.50
2022-12-18T05:34:05.596Z,-3.60
2022-12-18T05:36:52.273Z,-2.70
2022-12-18T05:39:38.891Z,-3.50
2022-12-18T05:42:25.572Z,-3.20
2022-12-18T05:45:12.177Z,-3.10
2022-12-18T05:47:58.818Z,-2.50
2022-12-18T05:50:46.618Z,-2.50
2022-12-18T05:53:33.489Z,-3.20
2022-12-18T05:56:20.940Z,-3.00
2022-12-18T05:59:09.281Z,-3.30
2022-12-18T06:01:56.049Z,-3.50
2022-12-18T06:04:42.849Z,-3.40
2022-12-18T06:07:29.483Z,-3.30
2022-12-18T06:10:16.232Z,-3.20
2022-12-18T06:13:03.529Z,-3.20
2022-12-18T06:15:50.265Z,-3.10
2022-12-18T06:18:36.943Z,-3.00
2022-12-18T06:21:23.635Z,-3.10
2022-12-18T06:24:10.238Z,-3.00
2022-12-18T06:26:57.222Z,-2.90
2022-12-18T06:29:43.849Z,-3.00
2022-12-18T06:32:30.538Z,-2.90
2022-12-18T06:35:17.253Z,-2.90
2022-12-18T06:38:04.310Z,-3.00
2022-12-18T06:40:50.948Z,-2.90
2022-12-18T06:43:38.136Z,-2.80
2022-12-18T06:46:25.187Z,-2.70
2022-12-18T06:49:12.106Z,-2.90
2022-12-18T06:51:59.005Z,-2.40
2022-12-18T06:54:45.756Z,-4.00
2022-12-18T06:57:32.408Z,-2.50
2022-12-18T07:00:19.410Z,-2.60
2022-12-18T07:03:06.102Z,-3.30
2022-12-18T07:05:53.007Z,-2.80
2022-12-18T07:08:39.622Z,-3.20
2022-12-18T07:11:26.272Z,-3.20
2022-12-18T07:14:12.943Z,-3.30
2022-12-18T07:16:59.652Z,-2.70
2022-12-18T07:19:46.759Z,-3.60
2022-12-18T07:22:33.471Z,-3.60
2022-12-18T07:25:20.065Z,-3.50
2022-12-18T07:28:07.015Z,-3.40
2022-12-18T07:30:53.592Z,-2.30
2022-12-18T07:33:42.210Z,-3.20
2022-12-18T07:36:29.212Z,-3.20
2022-12-18T07:39:15.950Z,-3.10
2022-12-18T07:42:21.356Z,-3.00
2022-12-18T07:45:10.032Z,-2.90
2022-12-18T07:47:56.628Z,-2.80
2022-12-18T07:50:43.293Z,-2.90
2022-12-18T07:53:30.018Z,-2.90
2022-12-18T07:56:32.147Z,-2.60
2022-12-18T07:59:19.177Z,-2.70
2022-12-18T08:02:05.967Z,-2.70
2022-12-18T08:04:53.641Z,-2.70
2022-12-18T08:07:40.752Z,-2.60
2022-12-18T08:10:27.445Z,-2.60
2022-12-18T08:13:16.090Z,-2.50
2022-12-18T08:16:04.842Z,-2.50
2022-12-18T08:18:54.078Z,-2.70
2022-12-18T08:21:40.869Z,-2.70
2022-12-18T08:24:29.092Z,-2.70
2022-12-18T08:27:31.221Z,-2.60
2022-12-18T08:30:21.084Z,-2.50
2022-12-18T08:33:07.758Z,-2.30
2022-12-18T08:35:56.036Z,-2.10
2022-12-18T08:38:42.658Z,-2.50
2022-12-18T08:41:31.151Z,-2.40
2022-12-18T08:44:36.736Z,-2.40
2022-12-18T08:47:25.063Z,-2.30
2022-12-18T08:50:13.193Z,-2.40
2022-12-18T08:53:01.134Z,-2.40
2022-12-18T08:55:50.404Z,-2.50
2022-12-18T08:58:39.027Z,-2.50
2022-12-18T09:01:25.718Z,-2.40
2022-12-18T09:04:14.040Z,-2.30
2022-12-18T09:07:00.671Z,-1.50
2022-12-18T09:09:49.247Z,-2.20
2022-12-18T09:12:35.886Z,-2.20
2022-12-18T09:15:24.041Z,-2.20
2022-12-18T09:18:10.666Z,-2.20
2022-12-18T09:20:59.074Z,-2.30
2022-12-18T09:23:49.855Z,-2.30
2022-12-18T09:26:38.138Z,-2.30
2022-12-18T09:29:25.928Z,-2.50
2022-12-18T09:32:18.951Z,-2.40
2022-12-18T09:35:08.803Z,-2.20
2022-12-18T09:37:57.021Z,-2.20
2022-12-18T09:40:54.599Z,-2.30
2022-12-18T09:43:46.045Z,-2.30
2022-12-18T09:46:35.225Z,-2.20
2022-12-18T09:49:26.048Z,-2.10
2022-12-18T09:52:15.537Z,-2.00
2022-12-18T09:55:12.078Z,-2.00
2022-12-18T09:58:03.539Z,-1.90
2022-12-18T10:00:54.054Z,-1.70
2022-12-18T10:03:40.770Z,-1.90
2022-12-18T10:06:34.988Z,-1.70
2022-12-18T10:09:40.452Z,-1.80
2022-12-18T10:12:35.085Z,-1.80
2022-12-18T10:15:31.101Z,-1.80
2022-12-18T10:18:38.240Z,-1.70
2022-12-18T10:21:31.119Z,-1.60
2022-12-18T10:24:25.027Z,-1.40
2022-12-18T10:27:14.735Z,-1.50
2022-12-18T10:30:03.995Z,-1.40
2022-12-18T10:32:50.606Z,-1.20
2022-12-18T10:35:39.054Z,-0.50
2022-12-18T10:38:29.774Z,-0.80
2022-12-18T10:41:29.311Z,-0.80
2022-12-18T10:44:18.588Z,-0.80
2022-12-18T10:47:11.983Z,-0.90
2022-12-18T10:49:59.788Z,-0.80
2022-12-18T10:52:55.025Z,-0.60
2022-12-18T10:55:45.253Z,-0.60
2022-12-18T10:58:37.017Z,-0.60
2022-12-18T11:01:23.725Z,-0.40
2022-12-18T11:04:12.010Z,0.30
2022-12-18T11:07:03.858Z,-0.30
2022-12-18T11:10:02.986Z,-0.40
2022-12-18T11:12:49.637Z,-0.70
2022-12-18T11:15:38.066Z,-0.70
2022-12-18T11:18:29.817Z,-0.70
2022-12-18T11:21:19.034Z,-0.50
2022-12-18T11:24:05.877Z,-0.20
2022-12-18T11:26:59.532Z,-0.20
2022-12-18T11:29:46.997Z,-0.30
2022-12-18T11:32:39.945Z,-0.20
2022-12-18T11:35:29.478Z,-0.20
2022-12-18T11:38:29.014Z,0.00
2022-12-18T11:41:49.290Z,0.00
2022-12-18T11:44:46.008Z,-0.20
2022-12-18T11:47:40.082Z,-0.50
2022-12-18T11:50:30.998Z,-0.60
2022-12-18T11:53:18.272Z,-0.80
2022-12-18T11:56:06.001Z,-0.70
2022-12-18T11:58:59.470Z,-0.20
2022-12-18T12:01:55.105Z,-0.40
2022-12-18T12:04:54.121Z,-0.10
2022-12-18T12:07:48.028Z,0.00
2022-12-18T12:10:45.079Z,-0.40
2022-12-18T12:13:35.992Z,-0.40
2022-12-18T12:16:22.676Z,-0.50
2022-12-18T12:19:11.001Z,-0.80
2022-12-18T12:22:07.080Z,-0.80
2022-12-18T12:25:01.996Z,-0.70
2022-12-18T12:27:48.827Z,-0.60
2022-12-18T12:30:42.972Z,0.00
2022-12-18T12:33:36.261Z,-0.60
2022-12-18T12:36:44.966Z,-0.60
2022-12-18T12:39:36.296Z,-0.60
2022-12-18T12:42:54.951Z,-0.70
2022-12-18T12:45:41.618Z,-0.60
2022-12-18T12:48:42.383Z,-0.70
2022-12-18T12:51:31.136Z,-0.60
2022-12-18T12:54:24.977Z,-0.60
2022-12-18T12:57:28.305Z,-0.60
2022-12-18T13:00:21.993Z,-0.60
2022-12-18T13:03:31.505Z,-0.50
2022-12-18T13:06:31.950Z,-0.40
2022-12-18T13:09:18.819Z,-0.40
2022-12-18T13:12:29.962Z,-0.50
2022-12-18T13:15:23.131Z,-0.50
2022-12-18T13:18:10.991Z,-0.50
2022-12-18T13:21:01.555Z,-0.30
2022-12-18T13:23:51.935Z,-0.10
2022-12-18T13:26:38.615Z,0.00
2022-12-18T13:29:46.904Z,0.00
2022-12-18T13:32:34.191Z,0.10
2022-12-18T13:35:21.933Z,0.00
2022-12-18T13:38:28.406Z,-0.30
2022-12-18T13:41:19.905Z,-0.60
2022-12-18T13:44:13.155Z,-0.70
2022-12-18T13:47:01.915Z,-0.60
2022-12-18T13:49:48.786Z,-0.60
2022-12-18T13:52:38.937Z,-0.70
2022-12-18T13:55:25.634Z,-0.70
2022-12-18T13:58:14.903Z,-0.70
2022-12-18T14:01:03.070Z,-0.60
2022-12-18T14:03:52.905Z,-0.60
2022-12-18T14:06:39.883Z,-0.70
2022-12-18T14:09:30.022Z,-0.30
2022-12-18T14:12:36.495Z,-0.40
2022-12-18T14:15:27.904Z,-1.00
2022-12-18T14:18:22.650Z,-1.00
2022-12-18T14:21:17.969Z,-1.00
2022-12-18T14:24:16.684Z,-1.00
2022-12-18T14:27:23.895Z,-1.00
2022-12-18T14:30:30.923Z,-1.00
2022-12-18T14:33:25.966Z,-1.00
2022-12-18T14:36:16.337Z,-1.00
2022-12-18T14:39:04.929Z,-1.00
2022-12-18T14:41:51.984Z,-1.10
2022-12-18T14:45:05.058Z,-1.30
2022-12-18T14:47:47.558Z,-1.30
2022-12-18T14:50:35.944Z,-1.30
2022-12-18T14:53:24.549Z,-1.40
2022-12-18T14:56:17.897Z,-1.40
2022-12-18T14:59:06.684Z,-1.50
2022-12-18T15:02:13.153Z,-1.60
2022-12-18T15:05:00.999Z,-1.60
2022-12-18T15:07:53.964Z,-1.50
2022-12-18T15:10:47.600Z,-1.50
2022-12-18T15:13:35.897Z,-1.60
2022-12-18T15:16:23.075Z,-1.60
2022-12-18T15:19:12.906Z,-1.60
2022-12-18T15:22:05.906Z,-1.60
2022-12-18T15:24:54.969Z,-1.70
2022-12-18T15:27:47.217Z,-1.70
2022-12-18T15:30:36.961Z,-1.70
2022-12-18T15:33:25.779Z,-1.60
2022-12-18T15:36:19.526Z,-1.50
2022-12-18T15:39:14.122Z,-1.60
2022-12-18T15:42:21.945Z,-1.60
2022-12-18T15:45:12.366Z,-1.50
2022-12-18T15:48:00.860Z,-1.50
2022-12-18T15:50:47.719Z,-1.50
2022-12-18T15:53:35.878Z,-1.50
2022-12-18T15:56:41.748Z,-1.50
2022-12-18T15:59:30.855Z,-1.50
2022-12-18T16:02:18.565Z,-1.60
2022-12-18T16:05:12.883Z,-1.70
2022-12-18T16:07:59.575Z,-1.80
2022-12-18T16:10:47.821Z,-1.80
2022-12-18T16:13:34.460Z,-1.80
2022-12-18T16:16:22.943Z,-1.70
2022-12-18T16:19:10.770Z,-1.70
2022-12-18T16:21:59.844Z,-1.80
2022-12-18T16:24:46.645Z,-1.90
2022-12-18T16:27:34.842Z,-2.00
2022-12-18T16:30:32.023Z,-2.00
2022-12-18T16:33:26.843Z,-2.00
2022-12-18T16:36:13.479Z,-1.80
2022-12-18T16:39:01.998Z,-1.70
2022-12-18T16:41:48.623Z,-1.70
2022-12-18T16:44:36.832Z,-1.70
2022-12-18T16:47:24.361Z,-0.90
2022-12-18T16:50:11.728Z,-1.80
2022-12-18T16:52:58.358Z,-1.80
2022-12-18T16:55:45.043Z,-1.90
2022-12-18T16:58:31.705Z,-1.80
2022-12-18T17:01:18.601Z,-1.70
2022-12-18T17:04:06.513Z,-1.70
2022-12-18T17:06:53.955Z,-1.70
2022-12-18T17:09:41.047Z,-1.70
2022-12-18T17:12:27.844Z,-1.80
2022-12-18T17:15:14.507Z,-1.20
2022-12-18T17:18:01.611Z,-1.80
2022-12-18T17:20:48.379Z,-1.70
2022-12-18T17:23:35.322Z,-1.20
2022-12-18T17:26:21.948Z,-1.60
2022-12-18T17:29:10.266Z,-1.50
2022-12-18T17:31:57.291Z,-1.50
2022-12-18T17:34:46.140Z,-1.40
2022-12-18T17:37:32.803Z,-1.40
2022-12-18T17:40:19.518Z,-1.40
2022-12-18T17:43:06.619Z,-1.40
2022-12-18T17:45:53.279Z,-1.60
2022-12-18T17:48:40.370Z,-1.70
2022-12-18T17:51:27.568Z,-1.80
2022-12-18T17:54:14.191Z,-1.80
2022-12-18T17:57:00.814Z,-1.80
2022-12-18T17:59:47.462Z,-1.70
2022-12-18T18:02:35.213Z,-1.60
2022-12-18T18:05:22.836Z,-1.60
2022-12-18T18:08:09.553Z,-1.60
2022-12-18T18:11:16.128Z,-1.60
2022-12-18T18:14:05.146Z,-1.60
2022-12-18T18:16:52.302Z,-1.60
2022-12-18T18:19:39.381Z,-1.70
2022-12-18T18:22:26.989Z,-1.70
2022-12-18T18:25:14.283Z,-1.70
2022-12-18T18:28:01.752Z,-1.70
2022-12-18T18:30:48.546Z,-1.70
2022-12-18T18:33:35.425Z,-1.70
2022-12-18T18:36:23.225Z,-1.40
2022-12-18T18:39:10.457Z,-1.80
2022-12-18T18:41:57.275Z,-1.80
2022-12-18T18:44:48.798Z,-1.80
2022-12-18T18:47:35.790Z,-1.70
2022-12-18T18:50:22.397Z,-1.70
2022-12-18T18:53:09.073Z,-1.70
2022-12-18T18:56:34.893Z,-1.60
2022-12-18T18:59:06.419Z,-1.70
2022-12-18T19:01:53.288Z,-1.80
2022-12-18T19:04:46.213Z,-1.80
2022-12-18T19:07:33.455Z,-1.90
2022-12-18T19:10:20.205Z,-1.80
2022-12-18T19:13:22.122Z,-1.80
2022-12-18T19:16:09.528Z,-1.70
2022-12-18T19:19:01.555Z,-1.70
2022-12-18T19:21:50.100Z,-1.60
2022-12-18T19:24:36.891Z,-1.50
2022-12-18T19:27:23.813Z,-1.50
2022-12-18T19:30:10.774Z,-1.40
2022-12-18T19:32:59.435Z,-1.30
2022-12-18T19:35:52.238Z,-1.30
2022-12-18T19:38:39.925Z,-1.30
2022-12-18T19:41:32.111Z,-1.40
2022-12-18T19:44:19.698Z,-1.50
2022-12-18T19:47:06.419Z,-1.60
2022-12-18T19:49:53.103Z,-1.70
2022-12-18T19:52:39.762Z,-1.70
2022-12-18T19:55:26.580Z,-1.60
2022-12-18T19:58:13.218Z,-1.60
2022-12-18T20:01:00.002Z,-1.60
2022-12-18T20:03:52.547Z,-1.70
2022-12-18T20:06:49.445Z,-1.70
2022-12-18T20:09:36.864Z,-1.70
2022-12-18T20:12:23.912Z,-1.70
2022-12-18T20:15:10.881Z,-1.70
2022-12-18T20:17:57.563Z,-1.60
2022-12-18T20:20:44.449Z,-1.50
2022-12-18T20:23:33.255Z,-1.40
2022-12-18T20:26:21.847Z,-1.40
2022-12-18T20:29:08.666Z,-1.50
2022-12-18T20:31:55.375Z,-1.60
2022-12-18T20:34:42.108Z,-1.60
2022-12-18T20:37:29.684Z,-1.70
2022-12-18T20:40:17.387Z,-1.80
2022-12-18T20:43:07.189Z,-1.80
2022-12-18T20:46:00.466Z,-1.80
2022-12-18T20:48:48.079Z,-1.80
2022-12-18T20:51:35.143Z,-1.10
2022-12-18T20:54:22.394Z,-1.60
2022-12-18T20:57:09.068Z,-1.50
2022-12-18T20:59:55.723Z,-1.40
2022-12-18T21:02:42.814Z,-1.40
2022-12-18T21:05:29.579Z,-1.40
2022-12-18T21:08:16.211Z,-1.40
2022-12-18T21:11:36.939Z,-1.60
2022-12-18T21:14:25.456Z,-1.60
2022-12-18T21:17:12.537Z,-0.80
2022-12-18T21:19:59.350Z,-1.70
2022-12-18T21:22:46.703Z,-1.70
2022-12-18T21:25:33.381Z,-1.80
2022-12-18T21:28:20.145Z,-1.40
2022-12-18T21:31:06.807Z,-1.70
2022-12-18T21:34:01.274Z,-1.60
2022-12-18T21:36:49.607Z,-1.60
2022-12-18T21:39:36.262Z,-1.60
2022-12-18T21:42:41.596Z,-1.50
2022-12-18T21:45:28.197Z,-1.60
2022-12-18T21:48:14.849Z,-1.60
2022-12-18T21:51:01.481Z,-1.50
2022-12-18T21:53:48.222Z,-1.40
2022-12-18T21:56:50.742Z,-1.40
2022-12-18T21:59:38.936Z,-1.30
2022-12-18T22:02:26.716Z,-1.30
2022-12-18T22:05:13.477Z,-1.30
2022-12-18T22:08:01.384Z,-1.30
2022-12-18T22:10:49.759Z,-1.30
2022-12-18T22:13:36.557Z,-1.20
2022-12-18T22:16:24.748Z,-1.10
2022-12-18T22:19:11.861Z,-1.00
2022-12-18T22:21:59.804Z,-0.90
2022-12-18T22:24:46.471Z,-0.80
2022-12-18T22:27:34.688Z,-0.80
2022-12-18T22:30:21.305Z,-0.90
2022-12-18T22:33:09.762Z,-1.00
2022-12-18T22:35:56.573Z,-0.90
2022-12-18T22:38:44.766Z,-1.00
2022-12-18T22:41:31.469Z,-1.00
2022-12-18T22:44:21.724Z,-1.00
2022-12-18T22:47:09.348Z,-1.00
2022-12-18T22:49:57.724Z,-1.00
2022-12-18T22:52:44.404Z,-1.10
2022-12-18T22:55:32.768Z,-1.10
2022-12-18T22:58:19.471Z,-1.00
2022-12-18T23:01:07.709Z,-1.00
2022-12-18T23:03:54.970Z,-1.10
2022-12-18T23:06:43.717Z,-1.00
2022-12-18T23:09:30.372Z,-1.00
2022-12-18T23:12:21.740Z,-1.10
2022-12-18T23:15:08.765Z,-1.00
2022-12-18T23:17:57.734Z,-0.90
2022-12-18T23:20:44.483Z,-0.80
2022-12-18T23:23:33.729Z,-0.70
2022-12-18T23:26:21.969Z,-0.70
2022-12-18T23:29:10.686Z,-0.80
2022-12-18T23:31:57.349Z,-0.80
2022-12-18T23:34:44.013Z,-0.80
2022-12-18T23:37:57.469Z,-0.80
2022-12-18T23:40:37.349Z,-0.80
2022-12-18T23:43:24.927Z,-0.70
2022-12-18T23:46:12.532Z,-0.60
2022-12-18T23:49:00.183Z,-0.50
2022-12-18T23:51:46.953Z,-0.40
2022-12-18T23:54:33.782Z,-0.50
2022-12-18T23:57:20.666Z,-0.50
